< Cyclone 196402 1964 Season Cyclone 196404 >
Cyclone 196403 (AUDREY)
General InformationTrack Information on Google Maps || ResourceGoogle EarthGE AnimationAtom FeedGeoJSON
Detalied Best Track (Time Zone = UTC)
Year Month Day Hour Lat. Long. Pressure (hPa) Wind (kt) Class Image Chart
1964 1 6 23 -10.1 141.5 1000 0 0 -- --
1964 1 7 02 -10.4 142.2 999 0 0 -- --
1964 1 7 11 -10.8 142.2 999 0 0 -- --
1964 1 7 17 -11.1 142.0 999 0 0 -- --
1964 1 7 23 -11.5 141.7 998 0 0 -- --
1964 1 8 11 -11.8 141.5 996 0 0 -- --
1964 1 8 23 -12.3 141.3 992 0 0 -- --
1964 1 9 11 -13.2 141.2 992 0 0 -- --
1964 1 9 23 -14.1 141.0 988 0 0 -- --
1964 1 10 11 -15.1 140.5 986 0 0 -- --
1964 1 10 23 -16.2 139.6 983 0 0 -- --
1964 1 11 11 -17.1 138.3 985 0 0 -- --
1964 1 12 23 -21.9 138.5 988 0 0 -- --
1964 1 13 05 -22.9 139.7 987 0 0 -- --
1964 1 13 08 -24.6 141.3 987 0 0 -- --
1964 1 13 11 -25.4 142.7 986 0 0 -- --
1964 1 13 14 -26.4 143.9 986 0 0 -- --
1964 1 13 17 -27.1 145.6 985 0 0 -- --
1964 1 13 23 -28.2 149.1 984 0 0 -- --
1964 1 14 02 -29.6 151.3 984 0 0 -- --
1964 1 14 04 -30.1 153.1 988 0 0 -- --
1964 1 14 08 -31.6 156.1 990 0 0 -- --
< Cyclone 196402 1964 Season Cyclone 196404 >

Help